Time;durP1;ratioP1;P1;durP2;ratioP2;P2;SDS_P1;SDS_P2;PMS_P1;PMS_P2;Temp;Humidity;BMP_temperature;BMP_pressure;BME280_temperature;BME280_humidity;BME280_pressure;Samples;Min_cycle;Max_cycle;Signal;HPM_P1;HPM_P2
2024/04/08 00:01:59;;;;;;;8.23;1.20;;;;;;;18.99;57.46;99735.03;10293956;28;20186;-59
2024/04/08 00:07:00;;;;;;;7.93;1.55;;;;;;;19.00;57.18;99727.72;10291153;28;20093;-59
2024/04/08 00:12:00;;;;;;;8.75;0.90;;;;;;;19.00;57.27;99714.91;10293061;28;20046;-62
2024/04/08 00:17:01;;;;;;;6.32;0.95;;;;;;;19.06;57.30;99695.94;10292881;28;20059;-62
2024/04/08 00:22:03;;;;;;;6.07;0.90;;;;;;;19.07;57.18;99689.41;10299930;28;20138;-62
2024/04/08 00:27:04;;;;;;;6.78;1.42;;;;;;;18.71;58.21;99705.13;10294182;28;20047;-62
2024/04/08 00:32:04;;;;;;;2.92;1.17;;;;;;;18.70;58.17;99698.00;10291812;28;20054;-61
2024/04/08 00:37:05;;;;;;;5.20;1.10;;;;;;;18.73;58.12;99683.91;10292270;28;20046;-62
2024/04/08 00:42:05;;;;;;;4.18;1.05;;;;;;;18.75;58.11;99684.50;10290694;28;20053;-61
2024/04/08 00:47:09;;;;;;;3.85;1.13;;;;;;;18.81;57.64;99670.75;10293204;28;20166;-60
2024/04/08 00:52:12;;;;;;;6.95;0.93;;;;;;;18.88;57.68;99667.88;10290726;28;20105;-62
2024/04/08 00:57:14;;;;;;;3.88;0.73;;;;;;;18.92;57.80;99663.56;10295457;28;20105;-58
2024/04/08 01:02:15;;;;;;;10.05;1.10;;;;;;;18.75;58.27;99682.59;10275453;28;20073;-58
2024/04/08 01:07:16;;;;;;;21.00;2.10;;;;;;;18.76;58.44;99686.97;10291551;28;20038;-59
2024/04/08 01:12:16;;;;;;;4.18;0.93;;;;;;;18.72;58.68;99690.41;10294390;28;20061;-60
2024/04/08 01:17:17;;;;;;;5.60;0.80;;;;;;;18.80;58.43;99696.34;10301607;28;20038;-61
2024/04/08 01:22:17;;;;;;;8.35;1.45;;;;;;;18.87;58.15;99698.06;10301681;28;20046;-62
2024/04/08 01:27:18;;;;;;;6.40;1.00;;;;;;;18.88;58.27;99688.81;10300783;28;20042;-57
2024/04/08 01:32:18;;;;;;;8.20;1.00;;;;;;;18.82;58.52;99682.47;10303378;28;20039;-57
2024/04/08 01:37:19;;;;;;;6.28;1.10;;;;;;;18.82;58.71;99682.47;10299693;28;20042;-58
2024/04/08 01:42:19;;;;;;;11.07;1.17;;;;;;;18.89;58.66;99685.03;10295449;28;20105;-58
2024/04/08 01:47:20;;;;;;;6.00;0.80;;;;;;;18.87;58.64;99668.13;10302289;28;20061;-58
2024/04/08 01:52:20;;;;;;;5.80;1.63;;;;;;;18.92;58.66;99666.31;10298514;28;20061;-56
2024/04/08 01:57:21;;;;;;;6.88;0.90;;;;;;;18.94;58.72;99674.22;10296122;28;20518;-56
2024/04/08 02:02:21;;;;;;;4.35;1.20;;;;;;;18.95;58.88;99675.88;10298269;28;20509;-59
2024/04/08 02:07:22;;;;;;;5.65;1.10;;;;;;;18.90;59.14;99675.78;10300223;28;20038;-57
2024/04/08 02:12:22;;;;;;;4.40;0.85;;;;;;;18.89;59.11;99658.63;10299964;28;20046;-58
2024/04/08 02:17:23;;;;;;;6.30;1.30;;;;;;;18.62;59.91;99712.84;10297353;28;20043;-58
2024/04/08 02:22:23;;;;;;;6.35;1.00;;;;;;;18.56;60.16;99711.94;10299163;28;20602;-56
2024/04/08 02:27:24;;;;;;;7.88;1.48;;;;;;;18.71;59.98;99697.78;10295017;28;20050;-57
2024/04/08 02:32:24;;;;;;;4.10;1.17;;;;;;;18.76;59.65;99697.03;10298501;28;20034;-60
2024/04/08 02:37:25;;;;;;;5.63;1.20;;;;;;;18.83;59.71;99686.84;10297297;28;20049;-62
2024/04/08 02:42:25;;;;;;;4.25;1.20;;;;;;;18.78;59.91;99664.97;10299069;28;20043;-58
2024/04/08 02:47:26;;;;;;;11.35;1.65;;;;;;;18.76;60.05;99653.47;10295700;28;20043;-62
2024/04/08 02:52:26;;;;;;;3.13;1.00;;;;;;;18.64;60.38;99645.38;10300198;28;20054;-62
2024/04/08 02:57:27;;;;;;;5.90;0.85;;;;;;;18.29;61.45;99653.75;10293295;28;20042;-61
2024/04/08 03:02:27;;;;;;;9.13;1.90;;;;;;;18.20;61.72;99659.56;10297175;28;20050;-59
2024/04/08 03:07:28;;;;;;;9.18;2.42;;;;;;;18.38;61.34;99691.22;10298019;28;20071;-61
2024/04/08 03:12:28;;;;;;;5.13;1.25;;;;;;;18.41;61.32;99679.81;10296153;28;20042;-62
2024/04/08 03:17:29;;;;;;;9.60;1.15;;;;;;;18.40;61.52;99655.56;10297101;28;20050;-61
2024/04/08 03:22:29;;;;;;;3.35;0.82;;;;;;;18.38;61.63;99663.16;10291627;28;20057;-63
2024/04/08 03:27:30;;;;;;;6.97;1.38;;;;;;;18.26;61.84;99671.38;10298678;28;20492;-61
2024/04/08 03:32:30;;;;;;;7.15;1.10;;;;;;;18.15;62.29;99710.34;10291989;28;20790;-61
2024/04/08 03:37:31;;;;;;;6.80;1.23;;;;;;;18.10;62.54;99615.84;10294207;28;20494;-59
2024/04/08 03:42:31;;;;;;;10.68;1.70;;;;;;;17.95;62.88;99708.88;10303783;28;20482;-59
2024/04/08 03:47:32;;;;;;;12.27;1.55;;;;;;;17.93;63.09;99707.44;10294860;28;20046;-59
2024/04/08 03:52:32;;;;;;;12.73;2.35;;;;;;;17.92;63.17;99686.75;10279187;28;20121;-59
2024/04/08 03:57:33;;;;;;;13.30;1.73;;;;;;;17.86;63.44;99685.00;10300377;28;20046;-59
2024/04/08 04:02:33;;;;;;;10.10;2.15;;;;;;;17.72;63.53;99682.50;10294110;28;20531;-59
2024/04/08 04:07:33;;;;;;;8.95;2.50;;;;;;;17.63;63.76;99665.75;10295585;28;20035;-59
2024/04/08 04:12:38;;;;;;;3.83;1.35;;;;;;;17.47;64.36;99676.53;10291550;28;20046;-59
2024/04/08 04:17:39;;;;;;;6.25;2.20;;;;;;;17.36;64.65;99678.19;10295216;28;20046;-59
2024/04/08 04:22:40;;;;;;;7.72;1.30;;;;;;;17.22;64.96;99700.16;10292228;28;20070;-59
2024/04/08 04:27:40;;;;;;;4.93;1.25;;;;;;;17.20;65.34;99696.00;10292781;28;20081;-59
2024/04/08 04:32:41;;;;;;;8.32;2.10;;;;;;;17.22;64.68;99700.16;10292080;28;20078;-59
2024/04/08 04:37:42;;;;;;;8.38;2.03;;;;;;;17.21;64.89;99708.53;10294672;28;20049;-59
2024/04/08 04:42:44;;;;;;;8.38;2.80;;;;;;;17.27;64.72;99706.78;10292199;28;20058;-59
2024/04/08 04:47:44;;;;;;;6.95;2.97;;;;;;;17.28;64.61;99714.69;10292418;28;20054;-61
2024/04/08 04:52:45;;;;;;;10.25;1.90;;;;;;;17.35;64.47;99709.13;10301143;28;20458;-61
2024/04/08 04:57:45;;;;;;;10.63;2.17;;;;;;;17.33;64.80;99716.69;10300214;28;20147;-60
2024/04/08 05:02:46;;;;;;;7.00;3.00;;;;;;;17.35;64.32;99714.56;10300856;28;20049;-60
2024/04/08 05:07:46;;;;;;;9.55;2.00;;;;;;;17.31;64.63;99730.50;10290072;28;20038;-61
2024/04/08 05:12:47;;;;;;;8.90;2.35;;;;;;;17.27;64.59;99723.91;10304426;28;20043;-60
2024/04/08 05:17:47;;;;;;;6.45;2.55;;;;;;;17.25;64.60;99713.25;10298658;28;20049;-60
2024/04/08 05:22:48;;;;;;;14.23;3.05;;;;;;;17.27;64.62;99718.47;10302779;28;21040;-60
2024/04/08 05:27:48;;;;;;;9.23;2.33;;;;;;;17.24;64.76;99717.06;10295907;28;20049;-60
2024/04/08 05:32:49;;;;;;;12.98;3.22;;;;;;;17.16;65.15;99714.69;10301204;28;20061;-60
2024/04/08 05:37:49;;;;;;;18.05;2.85;;;;;;;17.12;65.35;99718.94;10302270;28;20040;-60
2024/04/08 05:42:50;;;;;;;6.65;2.60;;;;;;;17.07;65.59;99718.81;10297902;28;20087;-59
2024/04/08 05:47:54;;;;;;;18.33;2.83;;;;;;;17.17;65.26;99713.63;10301627;28;20046;-59
2024/04/08 05:52:54;;;;;;;8.63;2.70;;;;;;;17.22;65.18;99712.94;10303227;28;20113;-59
2024/04/08 05:57:55;;;;;;;6.95;2.38;;;;;;;17.28;65.20;99703.00;10304907;28;20490;-59
2024/04/08 06:02:55;;;;;;;9.45;2.50;;;;;;;17.39;65.01;99710.31;10305841;28;20736;-57
2024/04/08 06:07:56;;;;;;;7.18;3.03;;;;;;;17.45;65.10;99720.22;10302632;28;20097;-57
2024/04/08 06:12:57;;;;;;;8.65;2.78;;;;;;;17.56;64.90;99722.13;10306706;28;20043;-57
2024/04/08 06:17:58;;;;;;;10.63;2.30;;;;;;;17.68;64.36;99724.03;10305172;28;20043;-61
2024/04/08 06:23:00;;;;;;;6.90;2.30;;;;;;;17.81;63.86;99716.44;10290178;28;20441;-57
2024/04/08 06:28:00;;;;;;;7.80;1.77;;;;;;;17.99;63.41;99722.78;10300785;28;20043;-57
2024/04/08 06:33:01;;;;;;;11.80;1.83;;;;;;;18.17;62.76;99713.66;10304576;28;20075;-59
2024/04/08 06:38:01;;;;;;;13.70;1.95;;;;;;;18.36;62.04;99720.53;10304153;28;20050;-58
2024/04/08 06:43:02;;;;;;;13.13;3.42;;;;;;;18.58;61.24;99722.56;10308008;28;20042;-57
2024/04/08 06:48:03;;;;;;;10.43;1.70;;;;;;;18.75;60.76;99717.16;10306646;28;20506;-57
2024/04/08 06:54:23;;;;;;;5.88;1.63;;;;;;;19.00;59.52;99725.00;11004007;26;20312;-59
2024/04/08 06:59:27;;;;;;;11.65;1.50;;;;;;;19.15;59.74;99717.03;10926091;27;20010;-57
2024/04/08 07:04:29;;;;;;;7.13;1.48;;;;;;;19.34;59.11;99733.97;10931250;26;20018;-57
2024/04/08 07:09:31;;;;;;;9.20;1.52;;;;;;;19.46;58.32;99717.53;10920307;26;20338;-58
2024/04/08 07:14:33;;;;;;;4.65;1.40;;;;;;;19.59;57.78;99722.63;10913827;26;20029;-60
2024/04/08 07:19:34;;;;;;;10.75;2.10;;;;;;;19.73;57.12;99716.84;10920991;26;20013;-59
2024/04/08 07:24:36;;;;;;;8.95;1.88;;;;;;;19.84;56.74;99713.16;10907851;26;20014;-60
2024/04/08 07:29:38;;;;;;;11.00;1.58;;;;;;;20.02;55.74;99703.84;10913253;27;20006;-60
2024/04/08 07:34:39;;;;;;;7.65;1.20;;;;;;;20.29;55.26;99712.06;10928287;26;20101;-59
2024/04/08 07:39:41;;;;;;;8.88;1.60;;;;;;;20.50;54.20;99699.47;10919492;27;20025;-60
2024/04/08 07:44:43;;;;;;;6.47;1.00;;;;;;;20.56;53.51;99703.91;10920263;27;20021;-57
2024/04/08 07:49:49;;;;;;;9.00;0.95;;;;;;;20.81;52.57;99705.25;10925134;27;20014;-57
2024/04/08 07:54:51;;;;;;;9.35;1.10;;;;;;;21.02;51.96;99711.72;10912660;27;20007;-59
2024/04/08 07:59:52;;;;;;;7.45;1.35;;;;;;;21.13;51.37;99718.91;10932338;27;20021;-57
2024/04/08 08:04:54;;;;;;;4.53;0.70;;;;;;;21.36;50.41;99716.88;10881741;26;20015;-59
2024/04/08 08:09:56;;;;;;;4.80;0.90;;;;;;;21.47;49.52;99710.44;10874288;27;20006;-58
2024/04/08 08:14:57;;;;;;;3.75;0.73;;;;;;;21.76;48.74;99702.66;10877821;27;20361;-58
2024/04/08 08:19:59;;;;;;;8.13;1.00;;;;;;;21.97;48.16;99700.00;10888287;27;20012;-58
2024/04/08 08:25:00;;;;;;;8.38;0.95;;;;;;;22.20;47.40;99698.75;10880040;27;20007;-58
2024/04/08 08:30:02;;;;;;;6.13;1.13;;;;;;;22.38;46.65;99689.22;10886639;27;20078;-60
2024/04/08 08:35:04;;;;;;;6.82;0.85;;;;;;;22.46;45.65;99696.09;10879330;27;20468;-57
2024/04/08 08:40:07;;;;;;;6.63;0.63;;;;;;;22.71;44.71;99695.28;10891510;27;20451;-59
2024/04/08 08:45:12;;;;;;;4.63;0.60;;;;;;;22.94;44.11;99696.69;10888257;26;20012;-59
2024/04/08 08:50:13;;;;;;;4.63;0.80;;;;;;;23.10;43.38;99686.56;10897517;26;20085;-58
2024/04/08 08:55:19;;;;;;;5.15;0.73;;;;;;;23.29;43.07;99689.56;10887105;27;20441;-58
2024/04/08 09:00:20;;;;;;;2.90;0.60;;;;;;;23.47;42.24;99688.97;10882234;26;20005;-57
2024/04/08 09:05:22;;;;;;;12.05;0.93;;;;;;;23.58;42.09;99695.28;10876143;27;20002;-59
2024/04/08 09:10:27;;;;;;;6.63;1.15;;;;;;;23.63;41.22;99687.00;10881860;27;20002;-59
2024/04/08 09:15:28;;;;;;;4.57;0.60;;;;;;;23.81;40.42;99693.03;10890500;27;20470;-57
2024/04/08 09:20:30;;;;;;;9.70;1.92;;;;;;;24.08;40.00;99685.22;10888247;26;20100;-58
2024/04/08 09:25:32;;;;;;;4.20;0.80;;;;;;;24.14;39.79;99678.59;10883473;27;19998;-58
2024/04/08 09:30:34;;;;;;;8.90;1.08;;;;;;;24.33;39.27;99681.53;10874566;27;20038;-58
2024/04/08 09:35:42;;;;;;;3.17;0.50;;;;;;;24.46;38.73;99666.31;10891416;27;20014;-60
2024/04/08 09:40:46;;;;;;;6.22;0.50;;;;;;;24.68;38.52;99687.09;10885956;27;20018;-58
2024/04/08 09:45:48;;;;;;;8.88;2.05;;;;;;;24.97;37.77;99687.13;10876342;26;20007;-60
2024/04/08 09:50:50;;;;;;;9.93;0.63;;;;;;;25.24;37.24;99689.41;10885530;26;20025;-57
2024/04/08 09:55:55;;;;;;;3.80;0.50;;;;;;;25.27;37.00;99682.50;10880043;26;20006;-58
2024/04/08 10:01:03;;;;;;;9.70;1.10;;;;;;;25.26;36.41;99686.38;10880677;27;20643;-61
2024/04/08 10:06:05;;;;;;;5.97;0.47;;;;;;;25.47;36.45;99685.03;10885362;27;20340;-60
2024/04/08 10:11:07;;;;;;;8.57;0.77;;;;;;;25.84;35.55;99664.22;10890704;27;20021;-57
2024/04/08 10:16:13;;;;;;;7.25;0.75;;;;;;;26.11;34.67;99663.63;10882985;27;20014;-57
2024/04/08 10:21:15;;;;;;;4.95;0.43;;;;;;;27.35;33.05;99668.06;10883802;27;20021;-57
2024/04/08 10:26:16;;;;;;;8.00;0.75;;;;;;;28.80;31.27;99647.28;10894790;26;20002;-58
2024/04/08 10:31:27;;;;;;;11.23;0.93;;;;;;;29.07;30.95;99662.91;10884936;27;20007;-61
2024/04/08 10:36:29;;;;;;;7.70;0.50;;;;;;;29.29;31.38;99633.59;10886971;27;20026;-58
2024/04/08 10:41:31;;;;;;;5.43;0.70;;;;;;;29.14;30.45;99649.44;10880637;27;20013;-58
2024/04/08 10:46:34;;;;;;;5.20;1.05;;;;;;;28.58;31.37;99635.06;10882037;27;20002;-59
2024/04/08 10:51:36;;;;;;;10.23;0.98;;;;;;;27.88;32.68;99633.59;10877484;27;20003;-57
2024/04/08 10:56:37;;;;;;;7.80;0.60;;;;;;;28.30;31.96;99637.09;10885118;27;20011;-58
2024/04/08 11:01:39;;;;;;;10.25;0.70;;;;;;;28.08;31.93;99637.84;10879616;27;20003;-63
2024/04/08 11:06:41;;;;;;;11.70;0.70;;;;;;;27.81;32.23;99642.28;10874086;27;20018;-66
2024/04/08 11:11:42;;;;;;;4.70;0.55;;;;;;;28.07;32.34;99630.72;10882112;27;20011;-63
2024/04/08 11:16:44;;;;;;;5.30;0.45;;;;;;;28.11;32.11;99630.91;10877809;27;20002;-66
2024/04/08 11:21:46;;;;;;;6.07;0.68;;;;;;;28.08;32.31;99619.34;10871675;26;20017;-66
2024/04/08 11:26:47;;;;;;;8.93;1.10;;;;;;;28.85;31.55;99612.00;10875637;26;20001;-66
2024/04/08 11:31:59;;;;;;;6.03;0.82;;;;;;;30.06;29.33;99615.56;10870719;27;20011;-66
2024/04/08 11:37:02;;;;;;;11.73;1.20;;;;;;;32.15;26.91;99614.16;10867632;27;20007;-66
2024/04/08 11:42:05;;;;;;;7.78;0.88;;;;;;;33.72;25.16;99606.94;10883945;26;20025;-66
2024/04/08 11:47:09;;;;;;;8.15;1.17;;;;;;;33.75;24.75;99595.06;10879027;27;20374;-66
2024/04/08 11:52:12;;;;;;;9.00;0.90;;;;;;;35.01;23.25;99605.09;10887062;27;20021;-62
2024/04/08 11:57:15;;;;;;;10.70;0.88;;;;;;;35.96;23.22;99600.63;10882369;27;20021;-62
2024/04/08 12:02:16;;;;;;;9.00;1.02;;;;;;;35.70;22.83;99607.66;10883510;27;20080;-62
2024/04/08 12:07:18;;;;;;;14.88;1.55;;;;;;;35.42;23.41;99607.75;10881035;27;20018;-62
2024/04/08 12:12:19;;;;;;;6.45;0.73;;;;;;;36.49;21.22;99604.56;10879324;26;20003;-62
2024/04/08 12:17:21;;;;;;;13.85;1.42;;;;;;;36.06;22.21;99583.25;10876755;27;20022;-62
2024/04/08 12:22:23;;;;;;;10.85;1.80;;;;;;;34.69;22.34;99582.72;10876307;27;20026;-62
2024/04/08 12:27:28;;;;;;;10.52;0.90;;;;;;;34.10;23.35;99586.16;10870350;27;20007;-62
2024/04/08 12:32:29;;;;;;;4.90;0.60;;;;;;;34.30;23.10;99578.81;10891652;27;20418;-59
2024/04/08 12:37:31;;;;;;;11.68;0.93;;;;;;;34.79;21.78;99564.63;10884473;27;20079;-58
2024/04/08 12:42:32;;;;;;;11.65;0.75;;;;;;;33.07;22.78;99578.91;10884345;27;20006;-59
2024/04/08 12:47:38;;;;;;;6.47;1.25;;;;;;;32.84;23.42;99559.00;10893705;27;20009;-58
2024/04/08 12:52:39;;;;;;;;;;;;;;;33.75;23.39;99542.09;10886589;27;20423;-59
2024/04/08 12:57:41;;;;;;;7.55;0.60;;;;;;;36.49;20.21;99542.16;10885869;27;19934;-59
2024/04/08 13:02:45;;;;;;;9.20;0.80;;;;;;;37.65;18.60;99518.53;10884272;27;20006;-59
2024/04/08 13:07:47;;;;;;;6.70;0.90;;;;;;;37.37;18.13;99507.69;10883853;27;20000;-58
2024/04/08 13:12:48;;;;;;;7.80;1.52;;;;;;;38.35;18.31;99502.16;10876997;27;20007;-59
2024/04/08 13:17:50;;;;;;;12.55;1.00;;;;;;;40.02;16.85;99506.63;10892744;27;20446;-58
2024/04/08 13:22:51;;;;;;;4.47;0.75;;;;;;;40.10;16.09;99503.84;10877388;27;20474;-58
2024/04/08 13:27:53;;;;;;;9.20;0.65;;;;;;;40.43;16.44;99517.63;10874054;26;20014;-61
2024/04/08 13:32:54;;;;;;;4.93;0.70;;;;;;;40.76;16.12;99510.06;10880946;27;20017;-59
2024/04/08 13:37:56;;;;;;;6.32;0.77;;;;;;;40.63;15.27;99514.44;10891494;27;20058;-59
2024/04/08 13:42:58;;;;;;;7.80;0.90;;;;;;;40.38;16.26;99514.41;10877993;27;20007;-66
2024/04/08 13:48:00;;;;;;;9.40;1.00;;;;;;;40.07;15.36;99524.34;10871750;26;20336;-62
2024/04/08 13:53:02;;;;;;;6.38;0.73;;;;;;;39.28;15.84;99521.88;10884447;26;20042;-66
2024/04/08 13:58:04;;;;;;;7.15;0.60;;;;;;;38.98;15.79;99514.41;10886536;26;20003;-65
2024/04/08 14:03:05;;;;;;;10.02;1.25;;;;;;;38.55;16.40;99510.38;10870440;26;20010;-65
2024/04/08 14:08:07;;;;;;;9.80;1.10;;;;;;;39.43;16.41;99495.47;10877099;27;20463;-62
2024/04/08 14:13:09;;;;;;;6.72;0.65;;;;;;;40.10;14.63;99498.22;10875700;27;20019;-62
2024/04/08 14:18:11;;;;;;;7.43;1.00;;;;;;;39.52;15.68;99497.94;10869023;27;20421;-66
2024/04/08 14:23:12;;;;;;;9.63;0.60;;;;;;;39.15;15.51;99484.81;10880248;27;20014;-66
2024/04/08 14:28:14;;;;;;;9.25;0.80;;;;;;;39.44;16.03;99477.41;10879803;27;20326;-66
2024/04/08 14:33:15;;;;;;;6.38;0.75;;;;;;;39.53;15.37;99477.03;10873701;27;20017;-65
2024/04/08 14:38:17;;;;;;;6.53;0.60;;;;;;;38.42;17.00;99471.31;10878233;26;20058;-65
2024/04/08 14:43:39;;;;;;;6.18;0.43;;;;;;;37.55;16.72;99462.25;10876759;27;20015;-66
2024/04/08 14:48:55;;;;;;;6.22;0.75;;;;;;;35.78;18.00;99463.97;10871657;27;20408;-65
2024/04/08 14:53:57;;;;;;;5.82;0.50;;;;;;;35.13;17.98;99447.72;10882183;26;20339;-66
2024/04/08 14:58:59;;;;;;;7.40;0.95;;;;;;;35.89;17.07;99425.06;10866680;27;20022;-65
2024/04/08 15:04:01;;;;;;;9.20;1.17;;;;;;;35.23;17.70;99429.63;10871355;27;20007;-59
2024/04/08 15:09:03;;;;;;;8.82;0.55;;;;;;;35.27;17.72;99431.34;10867396;27;21064;-59
2024/04/08 15:14:04;;;;;;;5.25;0.50;;;;;;;34.55;18.23;99425.97;10884127;27;20014;-63
2024/04/08 15:19:06;;;;;;;4.45;0.50;;;;;;;35.30;18.04;99416.63;10882665;27;20022;-62
2024/04/08 15:24:09;;;;;;;9.77;0.93;;;;;;;34.72;17.94;99419.25;10896554;27;20046;-57
2024/04/08 15:29:12;;;;;;;13.82;0.70;;;;;;;35.23;18.50;99410.91;10886797;27;20006;-57
2024/04/08 15:34:13;;;;;;;6.78;0.60;;;;;;;34.96;17.88;99407.06;10885567;27;20015;-57
2024/04/08 15:39:15;;;;;;;5.97;1.35;;;;;;;34.87;18.51;99389.66;10875327;27;20393;-60
2024/04/08 15:44:17;;;;;;;5.88;1.13;;;;;;;35.00;19.50;99379.22;10903239;27;20327;-57
2024/04/08 15:49:18;;;;;;;6.07;0.45;;;;;;;35.03;18.15;99372.88;10876443;27;20010;-59
2024/04/08 15:54:20;;;;;;;11.98;0.70;;;;;;;34.99;18.58;99356.03;10879564;27;20085;-57
2024/04/08 15:59:22;;;;;;;12.48;0.73;;;;;;;34.76;18.34;99355.94;10878859;27;20075;-57
2024/04/08 16:04:23;;;;;;;9.43;1.15;;;;;;;34.68;18.88;99351.34;10870367;27;20006;-59
2024/04/08 16:09:25;;;;;;;4.43;0.50;;;;;;;34.73;19.12;99342.69;10872675;26;20006;-60
2024/04/08 16:14:27;;;;;;;7.85;0.80;;;;;;;34.95;19.56;99338.38;10887782;26;20461;-58
2024/04/08 16:19:29;;;;;;;9.40;1.00;;;;;;;35.02;19.90;99329.38;10879495;27;20018;-57
2024/04/08 16:24:30;;;;;;;4.55;0.50;;;;;;;34.78;19.66;99338.78;10878272;26;20351;-60
2024/04/08 16:29:32;;;;;;;7.10;0.73;;;;;;;34.41;19.57;99339.09;10885029;26;20042;-58
2024/04/08 16:34:33;;;;;;;8.43;1.48;;;;;;;34.17;20.58;99352.06;10884231;26;20002;-59
2024/04/08 16:39:35;;;;;;;9.80;1.27;;;;;;;33.98;20.53;99344.38;10872681;27;20031;-59
2024/04/08 16:44:37;;;;;;;6.80;0.82;;;;;;;33.49;20.55;99330.66;10877665;27;20450;-59
2024/04/08 16:49:38;;;;;;;9.52;1.23;;;;;;;32.94;21.54;99322.72;10876395;27;19999;-59
2024/04/08 16:54:41;;;;;;;5.93;0.55;;;;;;;32.40;21.42;99325.75;10880815;27;20002;-59
2024/04/08 16:59:42;;;;;;;2.67;0.77;;;;;;;31.95;22.23;99310.75;10890767;26;20052;-58
2024/04/08 17:04:44;;;;;;;9.93;0.60;;;;;;;31.72;22.11;99310.34;10881689;27;20341;-59
2024/04/08 17:09:46;;;;;;;8.95;1.50;;;;;;;31.46;22.68;99309.78;10881643;27;20100;-58
2024/04/08 17:14:47;;;;;;;13.57;0.90;;;;;;;31.14;23.21;99303.84;10907647;26;20018;-59
2024/04/08 17:19:50;;;;;;;9.35;0.95;;;;;;;30.81;23.10;99293.47;10883971;27;20003;-59
2024/04/08 17:24:52;;;;;;;9.30;0.88;;;;;;;30.46;23.58;99290.09;10881050;26;20002;-59
2024/04/08 17:29:53;;;;;;;8.93;1.45;;;;;;;29.96;23.76;99300.75;10876466;27;20006;-59
2024/04/08 17:34:55;;;;;;;11.25;1.27;;;;;;;29.57;24.87;99293.47;10862260;27;20003;-64
2024/04/08 17:39:57;;;;;;;6.80;0.85;;;;;;;29.24;26.37;99294.00;10863866;27;20395;-64
2024/04/08 17:44:58;;;;;;;17.23;2.10;;;;;;;28.83;26.48;99281.44;10874163;27;20006;-65
2024/04/08 17:50:00;;;;;;;14.48;1.50;;;;;;;28.38;27.48;99267.84;10876692;27;20438;-64
2024/04/08 17:55:02;;;;;;;14.93;1.95;;;;;;;27.98;27.70;99273.38;10880370;27;20006;-63
2024/04/08 18:00:04;;;;;;;11.20;1.35;;;;;;;27.56;29.14;99272.81;10883327;27;20006;-63
2024/04/08 18:05:06;;;;;;;13.25;3.10;;;;;;;27.16;29.93;99273.50;10883223;27;20011;-62
2024/04/08 18:10:08;;;;;;;8.63;1.73;;;;;;;26.78;31.04;99281.28;10874403;27;19998;-60
2024/04/08 18:15:09;;;;;;;12.57;1.50;;;;;;;26.41;32.69;99266.63;10865948;27;20011;-59
2024/04/08 18:20:11;;;;;;;11.02;2.90;;;;;;;26.02;33.31;99273.47;10871729;27;20014;-60
2024/04/08 18:25:12;;;;;;;12.75;2.17;;;;;;;25.60;33.93;99283.59;10885658;27;20042;-59
2024/04/08 18:30:14;;;;;;;10.73;3.08;;;;;;;25.26;34.82;99284.72;10868959;27;20007;-62
2024/04/08 18:35:16;;;;;;;9.85;1.90;;;;;;;24.89;36.05;99283.59;10905205;26;20002;-62
2024/04/08 18:40:18;;;;;;;9.52;1.17;;;;;;;24.57;36.88;99284.31;10874162;26;20536;-62
2024/04/08 18:45:20;;;;;;;11.57;1.58;;;;;;;24.28;37.79;99283.25;10866341;27;20003;-61
2024/04/08 18:50:21;;;;;;;8.48;1.90;;;;;;;23.94;38.91;99273.22;10872494;27;20010;-62
2024/04/08 18:55:23;;;;;;;14.48;2.00;;;;;;;23.69;39.88;99267.94;10878426;27;20183;-58
2024/04/08 19:00:24;;;;;;;19.42;3.38;;;;;;;23.39;41.01;99294.56;10868393;27;20006;-60
2024/04/08 19:05:26;;;;;;;10.60;0.90;;;;;;;23.14;41.51;99290.94;10885683;26;21002;-58
2024/04/08 19:10:29;;;;;;;9.52;1.20;;;;;;;22.91;42.12;99286.13;10874008;27;20003;-60
2024/04/08 19:15:32;;;;;;;12.18;1.20;;;;;;;22.67;43.00;99305.13;10875043;26;20003;-58
2024/04/08 19:20:37;;;;;;;9.57;2.05;;;;;;;;;;10867668;27;20017;-58
2024/04/08 19:25:38;;;;;;;11.75;1.92;;;;;;;22.24;44.05;99289.19;10886349;27;20002;-58
2024/04/08 19:30:40;;;;;;;10.93;1.00;;;;;;;21.88;45.03;99296.63;10877422;26;20331;-59
2024/04/08 19:35:42;;;;;;;16.70;1.60;;;;;;;21.73;45.33;99287.34;10874465;27;20006;-59
2024/04/08 19:40:44;;;;;;;13.88;1.98;;;;;;;21.49;46.11;99278.91;10874018;27;20015;-59
2024/04/08 19:45:45;;;;;;;12.18;1.90;;;;;;;21.42;45.88;99307.59;10870325;27;20386;-59
2024/04/08 19:51:13;;;;;;;12.35;2.20;;;;;;;21.20;45.98;99308.66;10860302;27;20010;-58
2024/04/08 19:56:23;;;;;;;13.25;2.38;;;;;;;21.05;46.41;99312.22;10902208;26;20006;-60
2024/04/08 20:01:27;;;;;;;13.48;2.05;;;;;;;20.95;46.79;99318.47;10878467;27;20040;-59
2024/04/08 20:06:28;;;;;;;13.27;1.52;;;;;;;20.98;47.05;99295.25;10877003;27;20022;-60
2024/04/08 20:11:32;;;;;;;6.53;1.65;;;;;;;20.88;47.83;99278.84;10894805;27;20003;-60
2024/04/08 20:16:36;;;;;;;12.25;1.33;;;;;;;20.75;47.91;99294.69;10879610;27;20025;-58
2024/04/08 20:21:37;;;;;;;12.70;1.85;;;;;;;20.78;47.43;99285.13;10876374;27;20010;-59
2024/04/08 20:26:42;;;;;;;7.68;1.35;;;;;;;20.85;47.57;99258.34;10873898;27;20745;-58
2024/04/08 20:31:45;;;;;;;17.10;1.55;;;;;;;20.64;48.61;99237.56;10887948;27;20010;-58
2024/04/08 20:36:46;;;;;;;8.40;1.55;;;;;;;20.53;48.57;99217.56;10870500;27;20003;-59
2024/04/08 20:41:48;;;;;;;8.20;1.80;;;;;;;20.40;48.70;99214.25;10884361;27;20006;-59
2024/04/08 20:46:53;;;;;;;14.00;1.88;;;;;;;20.36;48.37;99224.09;10876316;27;20002;-60
2024/04/08 20:51:55;;;;;;;11.68;1.48;;;;;;;20.29;48.04;99234.41;10891258;27;20473;-58
2024/04/08 20:57:00;;;;;;;6.68;0.95;;;;;;;20.13;48.74;99222.63;10897515;27;20030;-59
2024/04/08 21:02:02;;;;;;;13.27;1.85;;;;;;;19.95;48.99;99228.56;10883541;26;20003;-60
2024/04/08 21:07:07;;;;;;;13.50;2.08;;;;;;;19.83;49.13;99211.56;10869786;26;20385;-60
2024/04/08 21:12:08;;;;;;;8.50;1.45;;;;;;;19.73;49.38;99209.63;10873165;26;20006;-60
2024/04/08 21:17:10;;;;;;;9.57;1.80;;;;;;;19.82;48.86;99213.47;10878706;26;20011;-69
2024/04/08 21:22:12;;;;;;;7.47;1.20;;;;;;;19.76;48.47;99215.34;10889895;26;20026;-69
2024/04/08 21:27:13;;;;;;;12.13;1.40;;;;;;;19.88;48.59;99201.50;10878044;27;20009;-69
2024/04/08 21:32:16;;;;;;;12.68;1.30;;;;;;;19.86;48.26;99221.97;10879411;26;20014;-70
2024/04/08 21:37:17;;;;;;;12.90;1.10;;;;;;;19.82;48.13;99218.94;10907670;26;21103;-68
2024/04/08 21:42:19;;;;;;;13.02;1.40;;;;;;;19.79;48.02;99206.66;10877432;26;20003;-69
2024/04/08 21:47:20;;;;;;;10.70;0.90;;;;;;;19.79;48.02;99173.94;10906498;27;20477;-66
2024/04/08 21:52:22;;;;;;;5.68;1.33;;;;;;;19.71;47.70;99151.78;10912696;26;20014;-67
2024/04/08 21:57:23;;;;;;;8.52;1.88;;;;;;;19.55;48.23;99170.78;10874338;27;20017;-69
2024/04/08 22:02:25;;;;;;;13.35;1.30;;;;;;;19.27;48.96;99162.97;10871914;27;19999;-71
2024/04/08 22:07:27;;;;;;;5.30;1.30;;;;;;;19.39;48.50;99166.31;10886542;27;20084;-70
2024/04/08 22:12:28;;;;;;;11.02;1.73;;;;;;;19.42;48.84;99158.44;10868454;26;20469;-63
2024/04/08 22:17:30;;;;;;;9.18;1.58;;;;;;;19.41;48.62;99145.91;10874813;26;20031;-69
2024/04/08 22:22:32;;;;;;;9.60;1.13;;;;;;;19.41;48.79;99150.50;10879617;27;20133;-68
2024/04/08 22:27:33;;;;;;;7.30;1.00;;;;;;;19.42;48.36;99138.53;10870721;27;20015;-61
2024/04/08 22:32:35;;;;;;;17.55;1.38;;;;;;;19.46;48.70;99130.66;10876342;26;20109;-61
2024/04/08 22:37:37;;;;;;;9.10;1.77;;;;;;;19.42;48.49;99116.75;10882675;26;20034;-61
2024/04/08 22:42:38;;;;;;;14.68;1.45;;;;;;;19.37;48.20;99119.44;10881518;27;19998;-62
2024/04/08 22:47:46;;;;;;;12.45;1.73;;;;;;;19.31;48.17;99115.88;10884932;27;20089;-64
2024/04/08 22:52:48;;;;;;;13.63;1.25;;;;;;;19.43;48.21;99110.19;10864356;27;20103;-61
2024/04/08 22:57:50;;;;;;;13.90;1.45;;;;;;;19.54;48.49;99111.06;10876566;27;20023;-61
2024/04/08 23:02:52;;;;;;;17.48;2.58;;;;;;;19.51;48.11;99109.72;10872024;27;20572;-62
2024/04/08 23:07:54;;;;;;;14.30;2.20;;;;;;;19.44;48.83;99113.75;10874776;27;20006;-62
2024/04/08 23:12:56;;;;;;;6.63;1.42;;;;;;;19.45;48.58;99110.78;10868516;27;20007;-62
2024/04/08 23:17:57;;;;;;;9.32;1.30;;;;;;;19.45;48.67;99113.50;10876211;26;20017;-62
2024/04/08 23:22:59;;;;;;;10.60;1.23;;;;;;;19.31;49.25;99129.50;10875846;26;20007;-62